sensor_id;sensor_type;location;lat;lon;timestamp;P1;durP1;ratioP1;P2;durP2;ratioP2
19782;SDS011;10051;40.294;-3.754;2023-10-13T00:02:01;21.63;;;7.53;;
19782;SDS011;10051;40.294;-3.754;2023-10-13T00:04:29;25.23;;;7.82;;
19782;SDS011;10051;40.294;-3.754;2023-10-13T00:07:00;17.52;;;7.53;;
19782;SDS011;10051;40.294;-3.754;2023-10-13T00:09:30;19.33;;;7.40;;
19782;SDS011;10051;40.294;-3.754;2023-10-13T00:12:02;18.42;;;7.05;;
19782;SDS011;10051;40.294;-3.754;2023-10-13T00:14:29;17.90;;;7.90;;
19782;SDS011;10051;40.294;-3.754;2023-10-13T00:17:03;18.67;;;7.40;;
19782;SDS011;10051;40.294;-3.754;2023-10-13T00:19:30;16.88;;;7.40;;
19782;SDS011;10051;40.294;-3.754;2023-10-13T00:22:07;21.85;;;7.65;;
19782;SDS011;10051;40.294;-3.754;2023-10-13T00:24:40;23.70;;;7.78;;
19782;SDS011;10051;40.294;-3.754;2023-10-13T00:27:17;22.05;;;8.13;;
19782;SDS011;10051;40.294;-3.754;2023-10-13T00:29:57;21.55;;;8.15;;
19782;SDS011;10051;40.294;-3.754;2023-10-13T00:32:43;18.25;;;7.88;;
19782;SDS011;10051;40.294;-3.754;2023-10-13T00:35:12;18.15;;;8.00;;
19782;SDS011;10051;40.294;-3.754;2023-10-13T00:37:40;19.38;;;7.47;;
19782;SDS011;10051;40.294;-3.754;2023-10-13T00:40:11;17.33;;;8.30;;
19782;SDS011;10051;40.294;-3.754;2023-10-13T00:42:55;21.35;;;8.13;;
19782;SDS011;10051;40.294;-3.754;2023-10-13T00:45:32;19.02;;;8.07;;
19782;SDS011;10051;40.294;-3.754;2023-10-13T00:47:59;16.30;;;7.78;;
19782;SDS011;10051;40.294;-3.754;2023-10-13T00:50:26;17.83;;;8.27;;
19782;SDS011;10051;40.294;-3.754;2023-10-13T00:52:54;19.88;;;7.97;;
19782;SDS011;10051;40.294;-3.754;2023-10-13T00:55:21;26.02;;;8.40;;
19782;SDS011;10051;40.294;-3.754;2023-10-13T00:57:54;16.58;;;7.80;;
19782;SDS011;10051;40.294;-3.754;2023-10-13T01:00:24;20.50;;;7.90;;
19782;SDS011;10051;40.294;-3.754;2023-10-13T01:02:53;17.45;;;8.13;;
19782;SDS011;10051;40.294;-3.754;2023-10-13T01:05:22;18.63;;;8.02;;
19782;SDS011;10051;40.294;-3.754;2023-10-13T01:07:48;20.88;;;8.15;;
19782;SDS011;10051;40.294;-3.754;2023-10-13T01:10:18;21.25;;;8.10;;
19782;SDS011;10051;40.294;-3.754;2023-10-13T01:12:45;19.60;;;7.88;;
19782;SDS011;10051;40.294;-3.754;2023-10-13T01:15:11;22.60;;;8.38;;
19782;SDS011;10051;40.294;-3.754;2023-10-13T01:17:42;17.52;;;7.80;;
19782;SDS011;10051;40.294;-3.754;2023-10-13T01:20:09;18.50;;;8.00;;
19782;SDS011;10051;40.294;-3.754;2023-10-13T01:22:37;20.80;;;8.32;;
19782;SDS011;10051;40.294;-3.754;2023-10-13T01:25:03;16.63;;;7.53;;
19782;SDS011;10051;40.294;-3.754;2023-10-13T01:27:38;16.85;;;7.25;;
19782;SDS011;10051;40.294;-3.754;2023-10-13T01:30:05;22.83;;;7.63;;
19782;SDS011;10051;40.294;-3.754;2023-10-13T01:32:35;14.90;;;7.65;;
19782;SDS011;10051;40.294;-3.754;2023-10-13T01:35:09;15.63;;;7.68;;
19782;SDS011;10051;40.294;-3.754;2023-10-13T01:37:35;17.10;;;7.40;;
19782;SDS011;10051;40.294;-3.754;2023-10-13T01:40:01;21.95;;;7.75;;
19782;SDS011;10051;40.294;-3.754;2023-10-13T01:42:27;20.25;;;7.75;;
19782;SDS011;10051;40.294;-3.754;2023-10-13T01:44:53;13.80;;;7.40;;
19782;SDS011;10051;40.294;-3.754;2023-10-13T01:47:30;17.75;;;8.00;;
19782;SDS011;10051;40.294;-3.754;2023-10-13T01:49:58;20.42;;;8.20;;
19782;SDS011;10051;40.294;-3.754;2023-10-13T01:52:32;21.88;;;7.78;;
19782;SDS011;10051;40.294;-3.754;2023-10-13T01:54:58;19.63;;;7.90;;
19782;SDS011;10051;40.294;-3.754;2023-10-13T01:57:26;29.88;;;7.60;;
19782;SDS011;10051;40.294;-3.754;2023-10-13T01:59:53;21.67;;;7.22;;
19782;SDS011;10051;40.294;-3.754;2023-10-13T02:02:20;17.00;;;7.40;;
19782;SDS011;10051;40.294;-3.754;2023-10-13T02:04:54;15.43;;;7.13;;
19782;SDS011;10051;40.294;-3.754;2023-10-13T02:07:22;22.73;;;7.68;;
19782;SDS011;10051;40.294;-3.754;2023-10-13T02:09:57;22.67;;;6.85;;
19782;SDS011;10051;40.294;-3.754;2023-10-13T02:12:23;18.45;;;6.35;;
19782;SDS011;10051;40.294;-3.754;2023-10-13T02:14:54;15.95;;;6.80;;
19782;SDS011;10051;40.294;-3.754;2023-10-13T02:17:19;15.68;;;6.40;;
19782;SDS011;10051;40.294;-3.754;2023-10-13T02:19:48;17.75;;;6.50;;
19782;SDS011;10051;40.294;-3.754;2023-10-13T02:22:14;19.10;;;6.90;;
19782;SDS011;10051;40.294;-3.754;2023-10-13T02:24:57;16.23;;;6.50;;
19782;SDS011;10051;40.294;-3.754;2023-10-13T02:27:27;17.63;;;6.88;;
19782;SDS011;10051;40.294;-3.754;2023-10-13T02:29:53;18.60;;;7.05;;
19782;SDS011;10051;40.294;-3.754;2023-10-13T02:32:23;15.88;;;6.70;;
19782;SDS011;10051;40.294;-3.754;2023-10-13T02:34:51;20.42;;;6.88;;
19782;SDS011;10051;40.294;-3.754;2023-10-13T02:37:17;15.90;;;7.07;;
19782;SDS011;10051;40.294;-3.754;2023-10-13T02:39:44;18.63;;;6.68;;
19782;SDS011;10051;40.294;-3.754;2023-10-13T02:42:10;15.32;;;7.32;;
19782;SDS011;10051;40.294;-3.754;2023-10-13T02:44:51;23.90;;;7.07;;
19782;SDS011;10051;40.294;-3.754;2023-10-13T02:47:20;15.88;;;6.88;;
19782;SDS011;10051;40.294;-3.754;2023-10-13T02:49:49;14.05;;;7.05;;
19782;SDS011;10051;40.294;-3.754;2023-10-13T02:52:14;20.42;;;7.22;;
19782;SDS011;10051;40.294;-3.754;2023-10-13T02:54:40;18.35;;;7.57;;
19782;SDS011;10051;40.294;-3.754;2023-10-13T02:57:16;17.80;;;7.03;;
19782;SDS011;10051;40.294;-3.754;2023-10-13T02:59:42;19.35;;;7.40;;
19782;SDS011;10051;40.294;-3.754;2023-10-13T03:02:15;16.40;;;7.13;;
19782;SDS011;10051;40.294;-3.754;2023-10-13T03:04:57;17.73;;;7.05;;
19782;SDS011;10051;40.294;-3.754;2023-10-13T03:07:27;17.75;;;6.70;;
19782;SDS011;10051;40.294;-3.754;2023-10-13T03:09:54;15.32;;;6.70;;
19782;SDS011;10051;40.294;-3.754;2023-10-13T03:12:23;19.35;;;7.07;;
19782;SDS011;10051;40.294;-3.754;2023-10-13T03:14:58;20.13;;;7.10;;
19782;SDS011;10051;40.294;-3.754;2023-10-13T03:17:43;20.98;;;6.57;;
19782;SDS011;10051;40.294;-3.754;2023-10-13T03:20:13;22.83;;;6.30;;
19782;SDS011;10051;40.294;-3.754;2023-10-13T03:22:41;12.65;;;6.28;;
19782;SDS011;10051;40.294;-3.754;2023-10-13T03:25:13;15.55;;;6.35;;
19782;SDS011;10051;40.294;-3.754;2023-10-13T03:27:50;13.80;;;6.20;;
19782;SDS011;10051;40.294;-3.754;2023-10-13T03:30:17;20.50;;;6.50;;
19782;SDS011;10051;40.294;-3.754;2023-10-13T03:32:43;15.60;;;6.55;;
19782;SDS011;10051;40.294;-3.754;2023-10-13T03:35:11;13.52;;;6.07;;
19782;SDS011;10051;40.294;-3.754;2023-10-13T03:37:39;13.65;;;6.20;;
19782;SDS011;10051;40.294;-3.754;2023-10-13T03:42:32;13.63;;;6.22;;
19782;SDS011;10051;40.294;-3.754;2023-10-13T03:44:58;16.13;;;5.97;;
19782;SDS011;10051;40.294;-3.754;2023-10-13T03:47:23;16.38;;;6.45;;
19782;SDS011;10051;40.294;-3.754;2023-10-13T03:49:53;14.65;;;5.82;;
19782;SDS011;10051;40.294;-3.754;2023-10-13T03:52:39;18.08;;;6.05;;
19782;SDS011;10051;40.294;-3.754;2023-10-13T03:55:04;19.80;;;6.15;;
19782;SDS011;10051;40.294;-3.754;2023-10-13T03:57:31;21.05;;;5.65;;
19782;SDS011;10051;40.294;-3.754;2023-10-13T04:00:03;16.17;;;5.78;;
19782;SDS011;10051;40.294;-3.754;2023-10-13T04:02:38;17.25;;;5.72;;
19782;SDS011;10051;40.294;-3.754;2023-10-13T04:05:10;12.90;;;5.57;;
19782;SDS011;10051;40.294;-3.754;2023-10-13T04:07:54;12.30;;;5.63;;
19782;SDS011;10051;40.294;-3.754;2023-10-13T04:10:47;14.02;;;5.60;;
19782;SDS011;10051;40.294;-3.754;2023-10-13T04:13:19;12.32;;;5.68;;
19782;SDS011;10051;40.294;-3.754;2023-10-13T04:16:04;19.95;;;5.78;;
19782;SDS011;10051;40.294;-3.754;2023-10-13T04:18:47;13.32;;;5.57;;
19782;SDS011;10051;40.294;-3.754;2023-10-13T04:21:25;16.42;;;5.57;;
19782;SDS011;10051;40.294;-3.754;2023-10-13T04:24:03;15.77;;;5.70;;
19782;SDS011;10051;40.294;-3.754;2023-10-13T04:26:48;20.30;;;5.53;;
19782;SDS011;10051;40.294;-3.754;2023-10-13T04:29:33;16.58;;;5.75;;
19782;SDS011;10051;40.294;-3.754;2023-10-13T04:32:15;14.93;;;5.35;;
19782;SDS011;10051;40.294;-3.754;2023-10-13T04:34:54;17.55;;;6.05;;
19782;SDS011;10051;40.294;-3.754;2023-10-13T04:37:34;13.13;;;5.53;;
19782;SDS011;10051;40.294;-3.754;2023-10-13T04:40:18;14.88;;;5.95;;
19782;SDS011;10051;40.294;-3.754;2023-10-13T04:42:50;16.48;;;6.07;;
19782;SDS011;10051;40.294;-3.754;2023-10-13T04:45:21;12.95;;;5.32;;
19782;SDS011;10051;40.294;-3.754;2023-10-13T04:47:56;16.00;;;6.15;;
19782;SDS011;10051;40.294;-3.754;2023-10-13T04:51:01;18.23;;;5.32;;
19782;SDS011;10051;40.294;-3.754;2023-10-13T04:53:45;16.42;;;5.55;;
19782;SDS011;10051;40.294;-3.754;2023-10-13T04:56:41;16.45;;;5.40;;
19782;SDS011;10051;40.294;-3.754;2023-10-13T04:59:06;19.27;;;5.63;;
19782;SDS011;10051;40.294;-3.754;2023-10-13T05:02:01;15.45;;;5.95;;
19782;SDS011;10051;40.294;-3.754;2023-10-13T05:04:45;11.80;;;5.03;;
19782;SDS011;10051;40.294;-3.754;2023-10-13T05:07:29;12.13;;;5.75;;
19782;SDS011;10051;40.294;-3.754;2023-10-13T05:10:13;12.55;;;5.45;;
19782;SDS011;10051;40.294;-3.754;2023-10-13T05:12:57;15.30;;;5.43;;
19782;SDS011;10051;40.294;-3.754;2023-10-13T05:15:50;13.20;;;4.55;;
19782;SDS011;10051;40.294;-3.754;2023-10-13T05:18:35;16.30;;;5.15;;
19782;SDS011;10051;40.294;-3.754;2023-10-13T05:21:19;13.80;;;5.10;;
19782;SDS011;10051;40.294;-3.754;2023-10-13T05:24:04;11.23;;;5.20;;
19782;SDS011;10051;40.294;-3.754;2023-10-13T05:26:49;12.50;;;4.78;;
19782;SDS011;10051;40.294;-3.754;2023-10-13T05:29:33;18.80;;;5.72;;
19782;SDS011;10051;40.294;-3.754;2023-10-13T05:32:17;19.10;;;5.45;;
19782;SDS011;10051;40.294;-3.754;2023-10-13T05:35:01;10.23;;;4.82;;
19782;SDS011;10051;40.294;-3.754;2023-10-13T05:37:45;10.68;;;4.95;;
19782;SDS011;10051;40.294;-3.754;2023-10-13T05:40:59;14.10;;;5.30;;
19782;SDS011;10051;40.294;-3.754;2023-10-13T05:43:45;13.40;;;5.10;;
19782;SDS011;10051;40.294;-3.754;2023-10-13T05:46:29;15.10;;;5.20;;
19782;SDS011;10051;40.294;-3.754;2023-10-13T05:49:04;13.32;;;5.30;;
19782;SDS011;10051;40.294;-3.754;2023-10-13T05:51:31;12.90;;;5.10;;
19782;SDS011;10051;40.294;-3.754;2023-10-13T05:54:02;12.07;;;4.80;;
19782;SDS011;10051;40.294;-3.754;2023-10-13T05:56:47;13.88;;;5.07;;
19782;SDS011;10051;40.294;-3.754;2023-10-13T05:59:40;12.32;;;4.95;;
19782;SDS011;10051;40.294;-3.754;2023-10-13T06:02:24;13.32;;;5.32;;
19782;SDS011;10051;40.294;-3.754;2023-10-13T06:05:09;10.32;;;5.32;;
19782;SDS011;10051;40.294;-3.754;2023-10-13T06:07:54;16.35;;;5.25;;
19782;SDS011;10051;40.294;-3.754;2023-10-13T06:10:40;16.25;;;5.40;;
19782;SDS011;10051;40.294;-3.754;2023-10-13T06:13:25;11.65;;;5.00;;
19782;SDS011;10051;40.294;-3.754;2023-10-13T06:16:10;12.25;;;4.93;;
19782;SDS011;10051;40.294;-3.754;2023-10-13T06:18:56;13.25;;;4.95;;
19782;SDS011;10051;40.294;-3.754;2023-10-13T06:21:40;12.57;;;5.35;;
19782;SDS011;10051;40.294;-3.754;2023-10-13T06:24:24;10.95;;;5.07;;
19782;SDS011;10051;40.294;-3.754;2023-10-13T06:27:09;14.20;;;4.50;;
19782;SDS011;10051;40.294;-3.754;2023-10-13T06:29:52;13.63;;;5.60;;
19782;SDS011;10051;40.294;-3.754;2023-10-13T06:32:21;14.02;;;5.30;;
19782;SDS011;10051;40.294;-3.754;2023-10-13T06:34:54;16.67;;;5.63;;
19782;SDS011;10051;40.294;-3.754;2023-10-13T06:37:40;14.73;;;6.18;;
19782;SDS011;10051;40.294;-3.754;2023-10-13T06:40:11;17.75;;;5.80;;
19782;SDS011;10051;40.294;-3.754;2023-10-13T06:42:54;18.73;;;5.10;;
19782;SDS011;10051;40.294;-3.754;2023-10-13T06:45:38;22.23;;;5.38;;
19782;SDS011;10051;40.294;-3.754;2023-10-13T06:48:04;15.85;;;5.40;;
19782;SDS011;10051;40.294;-3.754;2023-10-13T06:50:30;14.32;;;5.28;;
19782;SDS011;10051;40.294;-3.754;2023-10-13T06:53:04;17.15;;;5.65;;
19782;SDS011;10051;40.294;-3.754;2023-10-13T06:55:30;15.05;;;5.25;;
19782;SDS011;10051;40.294;-3.754;2023-10-13T06:58:00;14.77;;;5.43;;
19782;SDS011;10051;40.294;-3.754;2023-10-13T07:00:26;18.27;;;5.75;;
19782;SDS011;10051;40.294;-3.754;2023-10-13T07:03:00;11.45;;;5.38;;
19782;SDS011;10051;40.294;-3.754;2023-10-13T07:05:38;14.95;;;5.68;;
19782;SDS011;10051;40.294;-3.754;2023-10-13T07:08:06;16.63;;;5.15;;
19782;SDS011;10051;40.294;-3.754;2023-10-13T07:10:32;21.55;;;6.03;;
19782;SDS011;10051;40.294;-3.754;2023-10-13T07:13:10;15.50;;;4.93;;
19782;SDS011;10051;40.294;-3.754;2023-10-13T07:15:38;16.60;;;6.07;;
19782;SDS011;10051;40.294;-3.754;2023-10-13T07:18:13;14.77;;;5.10;;
19782;SDS011;10051;40.294;-3.754;2023-10-13T07:20:48;17.17;;;5.20;;
19782;SDS011;10051;40.294;-3.754;2023-10-13T07:23:14;19.45;;;5.45;;
19782;SDS011;10051;40.294;-3.754;2023-10-13T07:25:52;13.73;;;5.53;;
19782;SDS011;10051;40.294;-3.754;2023-10-13T07:28:31;19.50;;;5.75;;
19782;SDS011;10051;40.294;-3.754;2023-10-13T07:31:04;17.83;;;5.85;;
19782;SDS011;10051;40.294;-3.754;2023-10-13T07:33:30;15.65;;;5.40;;
19782;SDS011;10051;40.294;-3.754;2023-10-13T07:36:00;15.25;;;5.13;;
19782;SDS011;10051;40.294;-3.754;2023-10-13T07:38:41;13.80;;;5.20;;
19782;SDS011;10051;40.294;-3.754;2023-10-13T07:41:30;13.30;;;5.20;;
19782;SDS011;10051;40.294;-3.754;2023-10-13T07:43:56;19.48;;;5.80;;
19782;SDS011;10051;40.294;-3.754;2023-10-13T07:46:24;17.40;;;5.45;;
19782;SDS011;10051;40.294;-3.754;2023-10-13T07:48:56;14.45;;;5.50;;
19782;SDS011;10051;40.294;-3.754;2023-10-13T07:51:34;15.95;;;5.82;;
19782;SDS011;10051;40.294;-3.754;2023-10-13T07:54:05;15.07;;;6.40;;
19782;SDS011;10051;40.294;-3.754;2023-10-13T07:56:36;18.50;;;6.35;;
19782;SDS011;10051;40.294;-3.754;2023-10-13T07:59:04;15.43;;;5.50;;
19782;SDS011;10051;40.294;-3.754;2023-10-13T08:01:33;17.05;;;6.00;;
19782;SDS011;10051;40.294;-3.754;2023-10-13T08:03:59;16.60;;;5.85;;
19782;SDS011;10051;40.294;-3.754;2023-10-13T08:06:36;14.88;;;5.85;;
19782;SDS011;10051;40.294;-3.754;2023-10-13T08:09:03;16.08;;;5.40;;
19782;SDS011;10051;40.294;-3.754;2023-10-13T08:11:33;13.07;;;6.35;;
19782;SDS011;10051;40.294;-3.754;2023-10-13T08:14:05;14.88;;;5.50;;
19782;SDS011;10051;40.294;-3.754;2023-10-13T08:16:38;12.80;;;5.53;;
19782;SDS011;10051;40.294;-3.754;2023-10-13T08:19:14;19.95;;;5.55;;
19782;SDS011;10051;40.294;-3.754;2023-10-13T08:21:52;14.07;;;5.40;;
19782;SDS011;10051;40.294;-3.754;2023-10-13T08:24:39;15.05;;;4.78;;
19782;SDS011;10051;40.294;-3.754;2023-10-13T08:27:06;12.82;;;4.97;;
19782;SDS011;10051;40.294;-3.754;2023-10-13T08:29:41;12.57;;;4.88;;
19782;SDS011;10051;40.294;-3.754;2023-10-13T08:32:23;11.90;;;4.68;;
19782;SDS011;10051;40.294;-3.754;2023-10-13T08:34:53;10.55;;;4.30;;
19782;SDS011;10051;40.294;-3.754;2023-10-13T08:37:22;11.70;;;4.80;;
19782;SDS011;10051;40.294;-3.754;2023-10-13T08:39:55;13.68;;;5.05;;
19782;SDS011;10051;40.294;-3.754;2023-10-13T08:42:31;15.65;;;4.72;;
19782;SDS011;10051;40.294;-3.754;2023-10-13T08:45:04;9.60;;;5.10;;
19782;SDS011;10051;40.294;-3.754;2023-10-13T08:47:35;14.68;;;5.10;;
19782;SDS011;10051;40.294;-3.754;2023-10-13T08:50:03;15.52;;;5.10;;
19782;SDS011;10051;40.294;-3.754;2023-10-13T08:52:49;12.48;;;5.38;;
19782;SDS011;10051;40.294;-3.754;2023-10-13T08:55:21;11.32;;;5.15;;
19782;SDS011;10051;40.294;-3.754;2023-10-13T08:58:25;12.40;;;5.57;;
19782;SDS011;10051;40.294;-3.754;2023-10-13T09:01:10;11.52;;;5.18;;
19782;SDS011;10051;40.294;-3.754;2023-10-13T09:03:46;14.75;;;5.00;;
19782;SDS011;10051;40.294;-3.754;2023-10-13T09:06:14;15.80;;;5.47;;
19782;SDS011;10051;40.294;-3.754;2023-10-13T09:08:44;10.98;;;5.00;;
19782;SDS011;10051;40.294;-3.754;2023-10-13T09:11:33;17.20;;;5.60;;
19782;SDS011;10051;40.294;-3.754;2023-10-13T09:14:14;14.40;;;5.75;;
19782;SDS011;10051;40.294;-3.754;2023-10-13T09:17:04;15.18;;;5.70;;
19782;SDS011;10051;40.294;-3.754;2023-10-13T09:19:58;11.57;;;4.93;;
19782;SDS011;10051;40.294;-3.754;2023-10-13T09:22:47;16.60;;;5.50;;
19782;SDS011;10051;40.294;-3.754;2023-10-13T09:25:35;17.25;;;4.97;;
19782;SDS011;10051;40.294;-3.754;2023-10-13T09:28:18;14.50;;;5.00;;
19782;SDS011;10051;40.294;-3.754;2023-10-13T09:30:45;14.07;;;5.22;;
19782;SDS011;10051;40.294;-3.754;2023-10-13T09:33:11;14.48;;;5.00;;
19782;SDS011;10051;40.294;-3.754;2023-10-13T09:35:44;14.30;;;4.70;;
19782;SDS011;10051;40.294;-3.754;2023-10-13T09:38:19;8.75;;;4.43;;
19782;SDS011;10051;40.294;-3.754;2023-10-13T09:40:46;10.50;;;4.32;;
19782;SDS011;10051;40.294;-3.754;2023-10-13T09:43:18;15.70;;;4.43;;
19782;SDS011;10051;40.294;-3.754;2023-10-13T09:45:48;10.68;;;4.28;;
19782;SDS011;10051;40.294;-3.754;2023-10-13T09:48:42;9.77;;;4.80;;
19782;SDS011;10051;40.294;-3.754;2023-10-13T09:51:12;14.20;;;4.28;;
19782;SDS011;10051;40.294;-3.754;2023-10-13T09:56:53;6.97;;;4.50;;
19782;SDS011;10051;40.294;-3.754;2023-10-13T09:59:31;11.45;;;4.85;;
19782;SDS011;10051;40.294;-3.754;2023-10-13T10:02:01;10.95;;;4.53;;
19782;SDS011;10051;40.294;-3.754;2023-10-13T10:04:50;9.93;;;4.20;;
19782;SDS011;10051;40.294;-3.754;2023-10-13T10:07:24;9.68;;;4.32;;
19782;SDS011;10051;40.294;-3.754;2023-10-13T10:09:56;9.65;;;4.03;;
19782;SDS011;10051;40.294;-3.754;2023-10-13T10:15:32;11.15;;;3.92;;
19782;SDS011;10051;40.294;-3.754;2023-10-13T10:18:00;8.55;;;4.30;;
19782;SDS011;10051;40.294;-3.754;2023-10-13T10:20:30;12.10;;;4.45;;
19782;SDS011;10051;40.294;-3.754;2023-10-13T10:23:06;9.55;;;4.00;;
19782;SDS011;10051;40.294;-3.754;2023-10-13T10:25:43;11.45;;;4.68;;
19782;SDS011;10051;40.294;-3.754;2023-10-13T10:28:14;12.52;;;4.30;;
19782;SDS011;10051;40.294;-3.754;2023-10-13T10:30:42;7.57;;;4.00;;
19782;SDS011;10051;40.294;-3.754;2023-10-13T10:33:09;9.93;;;4.25;;
19782;SDS011;10051;40.294;-3.754;2023-10-13T10:35:43;10.27;;;4.00;;
19782;SDS011;10051;40.294;-3.754;2023-10-13T10:43:29;14.57;;;4.22;;
19782;SDS011;10051;40.294;-3.754;2023-10-13T10:48:43;6.55;;;4.25;;
19782;SDS011;10051;40.294;-3.754;2023-10-13T10:51:12;9.05;;;4.03;;
19782;SDS011;10051;40.294;-3.754;2023-10-13T10:53:51;10.82;;;4.00;;
19782;SDS011;10051;40.294;-3.754;2023-10-13T10:56:18;12.75;;;4.13;;
19782;SDS011;10051;40.294;-3.754;2023-10-13T10:58:50;10.63;;;4.22;;
19782;SDS011;10051;40.294;-3.754;2023-10-13T11:01:23;6.38;;;3.90;;
19782;SDS011;10051;40.294;-3.754;2023-10-13T11:03:53;11.48;;;3.70;;
19782;SDS011;10051;40.294;-3.754;2023-10-13T11:06:44;12.73;;;4.25;;
19782;SDS011;10051;40.294;-3.754;2023-10-13T11:09:12;8.18;;;3.70;;
19782;SDS011;10051;40.294;-3.754;2023-10-13T11:11:46;8.07;;;3.90;;
19782;SDS011;10051;40.294;-3.754;2023-10-13T11:14:23;9.02;;;3.97;;
19782;SDS011;10051;40.294;-3.754;2023-10-13T11:16:51;8.63;;;3.88;;
19782;SDS011;10051;40.294;-3.754;2023-10-13T11:19:19;9.57;;;4.20;;
19782;SDS011;10051;40.294;-3.754;2023-10-13T11:22:24;6.32;;;3.85;;
19782;SDS011;10051;40.294;-3.754;2023-10-13T11:25:05;9.82;;;4.20;;
19782;SDS011;10051;40.294;-3.754;2023-10-13T11:27:40;8.70;;;4.05;;
19782;SDS011;10051;40.294;-3.754;2023-10-13T11:30:09;13.98;;;4.07;;
19782;SDS011;10051;40.294;-3.754;2023-10-13T11:32:39;10.18;;;4.15;;
19782;SDS011;10051;40.294;-3.754;2023-10-13T11:35:08;8.48;;;4.03;;
19782;SDS011;10051;40.294;-3.754;2023-10-13T11:37:51;9.60;;;4.18;;
19782;SDS011;10051;40.294;-3.754;2023-10-13T11:40:38;12.75;;;4.07;;
19782;SDS011;10051;40.294;-3.754;2023-10-13T11:43:25;11.93;;;3.97;;
19782;SDS011;10051;40.294;-3.754;2023-10-13T11:45:51;10.20;;;4.07;;
19782;SDS011;10051;40.294;-3.754;2023-10-13T11:48:39;11.40;;;3.92;;
19782;SDS011;10051;40.294;-3.754;2023-10-13T11:51:07;11.40;;;4.10;;
19782;SDS011;10051;40.294;-3.754;2023-10-13T11:53:42;16.27;;;4.40;;
19782;SDS011;10051;40.294;-3.754;2023-10-13T11:56:09;10.18;;;4.35;;
19782;SDS011;10051;40.294;-3.754;2023-10-13T11:58:38;10.85;;;4.32;;
19782;SDS011;10051;40.294;-3.754;2023-10-13T12:01:04;13.75;;;4.38;;
19782;SDS011;10051;40.294;-3.754;2023-10-13T12:03:43;12.93;;;4.10;;
19782;SDS011;10051;40.294;-3.754;2023-10-13T12:06:29;12.18;;;4.30;;
19782;SDS011;10051;40.294;-3.754;2023-10-13T12:09:10;12.63;;;4.40;;
19782;SDS011;10051;40.294;-3.754;2023-10-13T12:11:45;12.73;;;4.13;;
19782;SDS011;10051;40.294;-3.754;2023-10-13T12:14:12;17.63;;;4.57;;
19782;SDS011;10051;40.294;-3.754;2023-10-13T12:17:07;9.50;;;3.78;;
19782;SDS011;10051;40.294;-3.754;2023-10-13T12:19:37;13.40;;;4.53;;
19782;SDS011;10051;40.294;-3.754;2023-10-13T12:22:04;14.10;;;4.90;;
19782;SDS011;10051;40.294;-3.754;2023-10-13T12:24:33;7.25;;;3.97;;
19782;SDS011;10051;40.294;-3.754;2023-10-13T12:27:02;9.43;;;4.07;;
19782;SDS011;10051;40.294;-3.754;2023-10-13T12:29:44;7.35;;;3.85;;
19782;SDS011;10051;40.294;-3.754;2023-10-13T12:32:13;6.82;;;4.18;;
19782;SDS011;10051;40.294;-3.754;2023-10-13T12:34:40;10.10;;;3.83;;
19782;SDS011;10051;40.294;-3.754;2023-10-13T12:37:24;8.63;;;4.35;;
19782;SDS011;10051;40.294;-3.754;2023-10-13T12:40:18;10.45;;;4.18;;
19782;SDS011;10051;40.294;-3.754;2023-10-13T12:43:06;11.98;;;4.25;;
19782;SDS011;10051;40.294;-3.754;2023-10-13T12:45:50;9.88;;;4.10;;
19782;SDS011;10051;40.294;-3.754;2023-10-13T12:48:36;9.02;;;3.90;;
19782;SDS011;10051;40.294;-3.754;2023-10-13T12:51:26;9.40;;;3.85;;
19782;SDS011;10051;40.294;-3.754;2023-10-13T12:53:57;9.80;;;3.90;;
19782;SDS011;10051;40.294;-3.754;2023-10-13T12:56:29;12.82;;;4.30;;
19782;SDS011;10051;40.294;-3.754;2023-10-13T12:58:55;7.53;;;4.30;;
19782;SDS011;10051;40.294;-3.754;2023-10-13T13:01:22;7.82;;;3.83;;
19782;SDS011;10051;40.294;-3.754;2023-10-13T13:03:49;12.02;;;4.05;;
19782;SDS011;10051;40.294;-3.754;2023-10-13T13:06:19;6.63;;;3.80;;
19782;SDS011;10051;40.294;-3.754;2023-10-13T13:08:52;10.43;;;3.90;;
19782;SDS011;10051;40.294;-3.754;2023-10-13T13:11:18;11.27;;;4.20;;
19782;SDS011;10051;40.294;-3.754;2023-10-13T13:13:44;6.88;;;3.80;;
19782;SDS011;10051;40.294;-3.754;2023-10-13T13:16:14;9.70;;;3.78;;
19782;SDS011;10051;40.294;-3.754;2023-10-13T13:18:43;10.80;;;3.97;;
19782;SDS011;10051;40.294;-3.754;2023-10-13T13:21:09;9.05;;;4.20;;
19782;SDS011;10051;40.294;-3.754;2023-10-13T13:23:37;11.50;;;5.13;;
19782;SDS011;10051;40.294;-3.754;2023-10-13T13:26:05;13.68;;;4.65;;
19782;SDS011;10051;40.294;-3.754;2023-10-13T13:28:44;10.70;;;4.95;;
19782;SDS011;10051;40.294;-3.754;2023-10-13T13:31:10;15.77;;;4.82;;
19782;SDS011;10051;40.294;-3.754;2023-10-13T13:33:38;9.80;;;5.05;;
19782;SDS011;10051;40.294;-3.754;2023-10-13T13:36:07;9.80;;;4.38;;
19782;SDS011;10051;40.294;-3.754;2023-10-13T13:38:38;9.80;;;4.18;;
19782;SDS011;10051;40.294;-3.754;2023-10-13T13:41:05;8.10;;;3.83;;
19782;SDS011;10051;40.294;-3.754;2023-10-13T13:43:40;8.90;;;3.85;;
19782;SDS011;10051;40.294;-3.754;2023-10-13T13:46:24;9.90;;;4.25;;
19782;SDS011;10051;40.294;-3.754;2023-10-13T13:48:58;7.97;;;3.88;;
19782;SDS011;10051;40.294;-3.754;2023-10-13T13:51:25;13.52;;;3.90;;
19782;SDS011;10051;40.294;-3.754;2023-10-13T13:53:54;7.90;;;3.75;;
19782;SDS011;10051;40.294;-3.754;2023-10-13T13:56:21;8.70;;;3.80;;
19782;SDS011;10051;40.294;-3.754;2023-10-13T13:58:50;8.73;;;3.80;;
19782;SDS011;10051;40.294;-3.754;2023-10-13T14:01:16;12.77;;;3.95;;
19782;SDS011;10051;40.294;-3.754;2023-10-13T14:03:51;10.57;;;3.80;;
19782;SDS011;10051;40.294;-3.754;2023-10-13T14:06:22;11.38;;;4.10;;
19782;SDS011;10051;40.294;-3.754;2023-10-13T14:08:52;6.40;;;3.40;;
19782;SDS011;10051;40.294;-3.754;2023-10-13T14:11:25;10.95;;;4.25;;
19782;SDS011;10051;40.294;-3.754;2023-10-13T14:14:04;8.57;;;3.90;;
19782;SDS011;10051;40.294;-3.754;2023-10-13T14:16:37;11.48;;;4.22;;
19782;SDS011;10051;40.294;-3.754;2023-10-13T14:19:10;10.23;;;3.78;;
19782;SDS011;10051;40.294;-3.754;2023-10-13T14:21:36;12.23;;;3.90;;
19782;SDS011;10051;40.294;-3.754;2023-10-13T14:24:02;10.02;;;3.97;;
19782;SDS011;10051;40.294;-3.754;2023-10-13T14:26:28;8.52;;;3.80;;
19782;SDS011;10051;40.294;-3.754;2023-10-13T14:28:55;8.57;;;4.10;;
19782;SDS011;10051;40.294;-3.754;2023-10-13T14:31:39;14.25;;;4.00;;
19782;SDS011;10051;40.294;-3.754;2023-10-13T14:34:08;12.18;;;3.80;;
19782;SDS011;10051;40.294;-3.754;2023-10-13T14:36:35;10.05;;;3.90;;
19782;SDS011;10051;40.294;-3.754;2023-10-13T14:39:01;16.05;;;3.97;;
19782;SDS011;10051;40.294;-3.754;2023-10-13T14:41:34;11.77;;;4.15;;
19782;SDS011;10051;40.294;-3.754;2023-10-13T14:44:01;14.38;;;4.38;;
19782;SDS011;10051;40.294;-3.754;2023-10-13T14:46:30;9.77;;;4.00;;
19782;SDS011;10051;40.294;-3.754;2023-10-13T14:48:56;9.25;;;3.75;;
19782;SDS011;10051;40.294;-3.754;2023-10-13T14:51:22;10.13;;;3.70;;
19782;SDS011;10051;40.294;-3.754;2023-10-13T14:53:50;10.05;;;4.07;;
19782;SDS011;10051;40.294;-3.754;2023-10-13T14:56:21;9.35;;;3.78;;
19782;SDS011;10051;40.294;-3.754;2023-10-13T14:58:50;11.63;;;4.20;;
19782;SDS011;10051;40.294;-3.754;2023-10-13T15:01:17;6.75;;;3.63;;
19782;SDS011;10051;40.294;-3.754;2023-10-13T15:03:46;12.43;;;4.18;;
19782;SDS011;10051;40.294;-3.754;2023-10-13T15:06:20;11.77;;;4.10;;
19782;SDS011;10051;40.294;-3.754;2023-10-13T15:08:50;9.10;;;3.65;;
19782;SDS011;10051;40.294;-3.754;2023-10-13T15:11:17;14.93;;;3.95;;
19782;SDS011;10051;40.294;-3.754;2023-10-13T15:13:46;10.80;;;4.15;;
19782;SDS011;10051;40.294;-3.754;2023-10-13T15:16:25;11.32;;;4.28;;
19782;SDS011;10051;40.294;-3.754;2023-10-13T15:18:52;10.70;;;4.32;;
19782;SDS011;10051;40.294;-3.754;2023-10-13T15:21:27;10.50;;;4.03;;